sensor_id;sensor_type;location;lat;lon;timestamp;P1;durP1;ratioP1;P2;durP2;ratioP2
13406;SDS011;6774;48.208;10.766;2023-04-06T00:02:01;8.10;;;7.30;;
13406;SDS011;6774;48.208;10.766;2023-04-06T00:04:29;8.50;;;7.77;;
13406;SDS011;6774;48.208;10.766;2023-04-06T00:06:57;7.77;;;7.17;;
13406;SDS011;6774;48.208;10.766;2023-04-06T00:09:24;10.63;;;7.43;;
13406;SDS011;6774;48.208;10.766;2023-04-06T00:11:52;9.77;;;8.77;;
13406;SDS011;6774;48.208;10.766;2023-04-06T00:14:20;9.27;;;8.20;;
13406;SDS011;6774;48.208;10.766;2023-04-06T00:16:47;7.87;;;7.27;;
13406;SDS011;6774;48.208;10.766;2023-04-06T00:19:16;7.70;;;7.10;;
13406;SDS011;6774;48.208;10.766;2023-04-06T00:21:44;6.30;;;5.70;;
13406;SDS011;6774;48.208;10.766;2023-04-06T00:24:12;7.07;;;5.73;;
13406;SDS011;6774;48.208;10.766;2023-04-06T00:26:39;8.03;;;7.23;;
13406;SDS011;6774;48.208;10.766;2023-04-06T00:29:08;6.63;;;6.03;;
13406;SDS011;6774;48.208;10.766;2023-04-06T00:31:36;8.13;;;7.43;;
13406;SDS011;6774;48.208;10.766;2023-04-06T00:34:03;7.87;;;7.27;;
13406;SDS011;6774;48.208;10.766;2023-04-06T00:36:32;8.50;;;7.47;;
13406;SDS011;6774;48.208;10.766;2023-04-06T00:39:00;8.97;;;8.03;;
13406;SDS011;6774;48.208;10.766;2023-04-06T00:41:28;8.23;;;7.53;;
13406;SDS011;6774;48.208;10.766;2023-04-06T00:43:56;8.23;;;7.43;;
13406;SDS011;6774;48.208;10.766;2023-04-06T00:46:24;9.17;;;8.23;;
13406;SDS011;6774;48.208;10.766;2023-04-06T00:48:51;7.60;;;7.07;;
13406;SDS011;6774;48.208;10.766;2023-04-06T00:51:19;9.47;;;8.40;;
13406;SDS011;6774;48.208;10.766;2023-04-06T00:53:48;8.13;;;7.33;;
13406;SDS011;6774;48.208;10.766;2023-04-06T00:56:16;7.77;;;7.27;;
13406;SDS011;6774;48.208;10.766;2023-04-06T00:58:50;7.57;;;6.87;;
13406;SDS011;6774;48.208;10.766;2023-04-06T01:01:18;7.27;;;6.77;;
13406;SDS011;6774;48.208;10.766;2023-04-06T01:03:49;8.27;;;7.43;;
13406;SDS011;6774;48.208;10.766;2023-04-06T01:06:18;7.73;;;6.90;;
13406;SDS011;6774;48.208;10.766;2023-04-06T01:08:56;7.53;;;6.93;;
13406;SDS011;6774;48.208;10.766;2023-04-06T01:11:25;7.87;;;7.13;;
13406;SDS011;6774;48.208;10.766;2023-04-06T01:13:54;9.03;;;7.43;;
13406;SDS011;6774;48.208;10.766;2023-04-06T01:16:26;6.30;;;5.67;;
13406;SDS011;6774;48.208;10.766;2023-04-06T01:19:08;6.10;;;5.53;;
13406;SDS011;6774;48.208;10.766;2023-04-06T01:21:40;8.37;;;6.63;;
13406;SDS011;6774;48.208;10.766;2023-04-06T01:24:18;6.63;;;5.33;;
13406;SDS011;6774;48.208;10.766;2023-04-06T01:26:57;6.83;;;6.13;;
13406;SDS011;6774;48.208;10.766;2023-04-06T01:29:30;8.63;;;7.40;;
13406;SDS011;6774;48.208;10.766;2023-04-06T01:32:00;8.07;;;7.20;;
13406;SDS011;6774;48.208;10.766;2023-04-06T01:34:33;9.83;;;6.83;;
13406;SDS011;6774;48.208;10.766;2023-04-06T01:37:03;7.93;;;7.13;;
13406;SDS011;6774;48.208;10.766;2023-04-06T01:39:32;6.00;;;5.50;;
13406;SDS011;6774;48.208;10.766;2023-04-06T01:42:03;5.83;;;5.43;;
13406;SDS011;6774;48.208;10.766;2023-04-06T01:44:33;7.57;;;6.87;;
13406;SDS011;6774;48.208;10.766;2023-04-06T01:47:09;7.13;;;6.40;;
13406;SDS011;6774;48.208;10.766;2023-04-06T01:49:37;7.37;;;6.80;;
13406;SDS011;6774;48.208;10.766;2023-04-06T01:52:05;6.87;;;6.37;;
13406;SDS011;6774;48.208;10.766;2023-04-06T01:54:37;7.27;;;6.70;;
13406;SDS011;6774;48.208;10.766;2023-04-06T01:57:19;7.83;;;7.10;;
13406;SDS011;6774;48.208;10.766;2023-04-06T01:59:57;7.00;;;6.40;;
13406;SDS011;6774;48.208;10.766;2023-04-06T02:02:54;7.40;;;6.90;;
13406;SDS011;6774;48.208;10.766;2023-04-06T02:05:25;6.97;;;6.37;;
13406;SDS011;6774;48.208;10.766;2023-04-06T02:07:54;8.30;;;7.50;;
13406;SDS011;6774;48.208;10.766;2023-04-06T02:10:31;7.37;;;6.87;;
13406;SDS011;6774;48.208;10.766;2023-04-06T02:13:08;10.53;;;7.70;;
13406;SDS011;6774;48.208;10.766;2023-04-06T02:15:37;9.57;;;8.73;;
13406;SDS011;6774;48.208;10.766;2023-04-06T02:18:04;6.90;;;6.40;;
13406;SDS011;6774;48.208;10.766;2023-04-06T02:20:32;8.60;;;7.80;;
13406;SDS011;6774;48.208;10.766;2023-04-06T02:23:00;7.90;;;7.20;;
13406;SDS011;6774;48.208;10.766;2023-04-06T02:25:27;10.30;;;9.27;;
13406;SDS011;6774;48.208;10.766;2023-04-06T02:27:57;9.70;;;7.97;;
13406;SDS011;6774;48.208;10.766;2023-04-06T02:30:28;8.87;;;8.07;;
13406;SDS011;6774;48.208;10.766;2023-04-06T02:32:58;9.13;;;8.33;;
13406;SDS011;6774;48.208;10.766;2023-04-06T02:35:33;7.20;;;6.67;;
13406;SDS011;6774;48.208;10.766;2023-04-06T02:38:01;8.53;;;7.87;;
13406;SDS011;6774;48.208;10.766;2023-04-06T02:40:29;9.93;;;8.93;;
13406;SDS011;6774;48.208;10.766;2023-04-06T02:43:04;7.60;;;6.83;;
13406;SDS011;6774;48.208;10.766;2023-04-06T02:45:32;7.13;;;6.53;;
13406;SDS011;6774;48.208;10.766;2023-04-06T02:48:01;7.50;;;6.77;;
13406;SDS011;6774;48.208;10.766;2023-04-06T02:50:30;6.97;;;6.47;;
13406;SDS011;6774;48.208;10.766;2023-04-06T02:53:02;6.27;;;5.57;;
13406;SDS011;6774;48.208;10.766;2023-04-06T02:55:31;8.47;;;7.77;;
13406;SDS011;6774;48.208;10.766;2023-04-06T02:57:58;8.37;;;7.63;;
13406;SDS011;6774;48.208;10.766;2023-04-06T03:00:35;9.97;;;7.17;;
13406;SDS011;6774;48.208;10.766;2023-04-06T03:03:04;8.17;;;7.17;;
13406;SDS011;6774;48.208;10.766;2023-04-06T03:05:34;9.03;;;8.23;;
13406;SDS011;6774;48.208;10.766;2023-04-06T03:08:01;10.57;;;9.60;;
13406;SDS011;6774;48.208;10.766;2023-04-06T03:10:39;8.13;;;7.47;;
13406;SDS011;6774;48.208;10.766;2023-04-06T03:13:07;9.10;;;8.33;;
13406;SDS011;6774;48.208;10.766;2023-04-06T03:15:46;9.47;;;8.67;;
13406;SDS011;6774;48.208;10.766;2023-04-06T03:18:20;8.23;;;7.57;;
13406;SDS011;6774;48.208;10.766;2023-04-06T03:20:49;8.43;;;7.53;;
13406;SDS011;6774;48.208;10.766;2023-04-06T03:23:18;9.27;;;8.50;;
13406;SDS011;6774;48.208;10.766;2023-04-06T03:25:51;9.70;;;8.77;;
13406;SDS011;6774;48.208;10.766;2023-04-06T03:28:20;10.20;;;9.20;;
13406;SDS011;6774;48.208;10.766;2023-04-06T03:30:53;9.30;;;8.40;;
13406;SDS011;6774;48.208;10.766;2023-04-06T03:33:44;10.00;;;8.97;;
13406;SDS011;6774;48.208;10.766;2023-04-06T03:36:23;12.67;;;10.30;;
13406;SDS011;6774;48.208;10.766;2023-04-06T03:38:53;7.37;;;6.63;;
13406;SDS011;6774;48.208;10.766;2023-04-06T03:41:21;9.27;;;8.40;;
13406;SDS011;6774;48.208;10.766;2023-04-06T03:44:03;8.90;;;8.13;;
13406;SDS011;6774;48.208;10.766;2023-04-06T03:46:32;7.33;;;6.73;;
13406;SDS011;6774;48.208;10.766;2023-04-06T03:49:00;9.13;;;8.37;;
13406;SDS011;6774;48.208;10.766;2023-04-06T03:51:28;8.57;;;7.80;;
13406;SDS011;6774;48.208;10.766;2023-04-06T03:53:56;10.47;;;8.40;;
13406;SDS011;6774;48.208;10.766;2023-04-06T03:56:23;9.47;;;8.77;;
13406;SDS011;6774;48.208;10.766;2023-04-06T03:58:53;9.90;;;9.03;;
13406;SDS011;6774;48.208;10.766;2023-04-06T04:01:21;16.50;;;11.40;;
13406;SDS011;6774;48.208;10.766;2023-04-06T04:03:50;9.63;;;8.67;;
13406;SDS011;6774;48.208;10.766;2023-04-06T04:06:18;9.73;;;7.57;;
13406;SDS011;6774;48.208;10.766;2023-04-06T04:08:46;8.67;;;7.80;;
13406;SDS011;6774;48.208;10.766;2023-04-06T04:11:14;8.33;;;7.67;;
13406;SDS011;6774;48.208;10.766;2023-04-06T04:13:44;10.80;;;8.67;;
13406;SDS011;6774;48.208;10.766;2023-04-06T04:16:12;9.90;;;8.90;;
13406;SDS011;6774;48.208;10.766;2023-04-06T04:18:40;9.93;;;9.03;;
13406;SDS011;6774;48.208;10.766;2023-04-06T04:21:11;7.63;;;6.90;;
13406;SDS011;6774;48.208;10.766;2023-04-06T04:23:38;10.77;;;8.30;;
13406;SDS011;6774;48.208;10.766;2023-04-06T04:26:06;7.67;;;6.77;;
13406;SDS011;6774;48.208;10.766;2023-04-06T04:28:34;9.60;;;8.80;;
13406;SDS011;6774;48.208;10.766;2023-04-06T04:31:02;9.70;;;7.83;;
13406;SDS011;6774;48.208;10.766;2023-04-06T04:33:33;8.17;;;7.47;;
13406;SDS011;6774;48.208;10.766;2023-04-06T04:36:07;9.83;;;8.73;;
13406;SDS011;6774;48.208;10.766;2023-04-06T04:38:41;9.07;;;8.17;;
13406;SDS011;6774;48.208;10.766;2023-04-06T04:41:10;9.53;;;8.63;;
13406;SDS011;6774;48.208;10.766;2023-04-06T04:43:41;10.67;;;9.77;;
13406;SDS011;6774;48.208;10.766;2023-04-06T04:46:10;9.53;;;8.57;;
13406;SDS011;6774;48.208;10.766;2023-04-06T04:48:41;9.60;;;8.63;;
13406;SDS011;6774;48.208;10.766;2023-04-06T04:51:09;8.47;;;7.80;;
13406;SDS011;6774;48.208;10.766;2023-04-06T04:53:51;8.50;;;7.87;;
13406;SDS011;6774;48.208;10.766;2023-04-06T04:56:23;10.80;;;9.70;;
13406;SDS011;6774;48.208;10.766;2023-04-06T04:58:56;19.30;;;9.10;;
13406;SDS011;6774;48.208;10.766;2023-04-06T05:01:27;16.53;;;8.77;;
13406;SDS011;6774;48.208;10.766;2023-04-06T05:03:59;10.73;;;9.77;;
13406;SDS011;6774;48.208;10.766;2023-04-06T05:06:27;10.57;;;9.67;;
13406;SDS011;6774;48.208;10.766;2023-04-06T05:08:56;10.87;;;9.83;;
13406;SDS011;6774;48.208;10.766;2023-04-06T05:11:24;9.87;;;9.07;;
13406;SDS011;6774;48.208;10.766;2023-04-06T05:13:57;9.70;;;8.80;;
13406;SDS011;6774;48.208;10.766;2023-04-06T05:16:27;11.33;;;10.23;;
13406;SDS011;6774;48.208;10.766;2023-04-06T05:18:55;10.53;;;9.60;;
13406;SDS011;6774;48.208;10.766;2023-04-06T05:21:29;9.33;;;8.53;;
13406;SDS011;6774;48.208;10.766;2023-04-06T05:24:04;9.77;;;8.93;;
13406;SDS011;6774;48.208;10.766;2023-04-06T05:26:33;9.30;;;8.33;;
13406;SDS011;6774;48.208;10.766;2023-04-06T05:29:06;10.37;;;9.53;;
13406;SDS011;6774;48.208;10.766;2023-04-06T05:31:36;8.67;;;7.87;;
13406;SDS011;6774;48.208;10.766;2023-04-06T05:34:04;10.03;;;8.97;;
13406;SDS011;6774;48.208;10.766;2023-04-06T05:36:35;10.80;;;9.27;;
13406;SDS011;6774;48.208;10.766;2023-04-06T05:39:12;10.70;;;9.70;;
13406;SDS011;6774;48.208;10.766;2023-04-06T05:41:44;11.10;;;10.00;;
13406;SDS011;6774;48.208;10.766;2023-04-06T05:44:13;8.77;;;8.03;;
13406;SDS011;6774;48.208;10.766;2023-04-06T05:46:45;8.33;;;7.63;;
13406;SDS011;6774;48.208;10.766;2023-04-06T05:49:15;10.83;;;8.13;;
13406;SDS011;6774;48.208;10.766;2023-04-06T05:51:43;9.27;;;8.40;;
13406;SDS011;6774;48.208;10.766;2023-04-06T05:54:12;9.53;;;8.63;;
13406;SDS011;6774;48.208;10.766;2023-04-06T05:56:40;10.60;;;8.77;;
13406;SDS011;6774;48.208;10.766;2023-04-06T05:59:10;8.93;;;8.20;;
13406;SDS011;6774;48.208;10.766;2023-04-06T06:01:39;9.00;;;8.30;;
13406;SDS011;6774;48.208;10.766;2023-04-06T06:04:08;10.77;;;9.27;;
13406;SDS011;6774;48.208;10.766;2023-04-06T06:06:38;10.40;;;9.47;;
13406;SDS011;6774;48.208;10.766;2023-04-06T06:09:14;9.27;;;8.43;;
13406;SDS011;6774;48.208;10.766;2023-04-06T06:11:56;8.67;;;7.90;;
13406;SDS011;6774;48.208;10.766;2023-04-06T06:14:26;8.07;;;7.27;;
13406;SDS011;6774;48.208;10.766;2023-04-06T06:16:55;8.70;;;8.00;;
13406;SDS011;6774;48.208;10.766;2023-04-06T06:19:22;7.43;;;6.90;;
13406;SDS011;6774;48.208;10.766;2023-04-06T06:21:53;9.90;;;8.10;;
13406;SDS011;6774;48.208;10.766;2023-04-06T06:24:22;9.43;;;8.50;;
13406;SDS011;6774;48.208;10.766;2023-04-06T06:26:50;8.70;;;7.90;;
13406;SDS011;6774;48.208;10.766;2023-04-06T06:29:21;8.67;;;7.90;;
13406;SDS011;6774;48.208;10.766;2023-04-06T06:31:50;9.17;;;8.47;;
13406;SDS011;6774;48.208;10.766;2023-04-06T06:34:18;9.40;;;8.50;;
13406;SDS011;6774;48.208;10.766;2023-04-06T06:36:45;11.27;;;10.03;;
13406;SDS011;6774;48.208;10.766;2023-04-06T06:39:15;9.97;;;8.97;;
13406;SDS011;6774;48.208;10.766;2023-04-06T06:41:44;9.80;;;9.00;;
13406;SDS011;6774;48.208;10.766;2023-04-06T06:44:12;9.33;;;8.53;;
13406;SDS011;6774;48.208;10.766;2023-04-06T06:46:40;12.30;;;9.07;;
13406;SDS011;6774;48.208;10.766;2023-04-06T06:49:08;10.60;;;9.57;;
13406;SDS011;6774;48.208;10.766;2023-04-06T06:51:38;10.83;;;9.47;;
13406;SDS011;6774;48.208;10.766;2023-04-06T06:54:06;10.90;;;8.70;;
13406;SDS011;6774;48.208;10.766;2023-04-06T06:56:34;10.10;;;9.30;;
13406;SDS011;6774;48.208;10.766;2023-04-06T06:59:05;11.47;;;8.53;;
13406;SDS011;6774;48.208;10.766;2023-04-06T07:01:34;9.60;;;8.77;;
13406;SDS011;6774;48.208;10.766;2023-04-06T07:04:02;10.93;;;10.07;;
13406;SDS011;6774;48.208;10.766;2023-04-06T07:06:30;10.73;;;9.67;;
13406;SDS011;6774;48.208;10.766;2023-04-06T07:08:57;11.60;;;10.43;;
13406;SDS011;6774;48.208;10.766;2023-04-06T07:11:25;11.37;;;10.20;;
13406;SDS011;6774;48.208;10.766;2023-04-06T07:13:52;11.90;;;9.57;;
13406;SDS011;6774;48.208;10.766;2023-04-06T07:16:21;13.90;;;11.07;;
13406;SDS011;6774;48.208;10.766;2023-04-06T07:18:49;9.10;;;8.30;;
13406;SDS011;6774;48.208;10.766;2023-04-06T07:21:18;9.17;;;8.40;;
13406;SDS011;6774;48.208;10.766;2023-04-06T07:23:45;10.47;;;9.23;;
13406;SDS011;6774;48.208;10.766;2023-04-06T07:26:15;11.93;;;10.67;;
13406;SDS011;6774;48.208;10.766;2023-04-06T07:28:43;9.43;;;8.60;;
13406;SDS011;6774;48.208;10.766;2023-04-06T07:31:12;11.33;;;9.60;;
13406;SDS011;6774;48.208;10.766;2023-04-06T07:33:41;8.57;;;7.83;;
13406;SDS011;6774;48.208;10.766;2023-04-06T07:36:08;9.30;;;8.53;;
13406;SDS011;6774;48.208;10.766;2023-04-06T07:38:36;9.93;;;9.13;;
13406;SDS011;6774;48.208;10.766;2023-04-06T07:41:05;10.30;;;9.07;;
13406;SDS011;6774;48.208;10.766;2023-04-06T07:43:33;11.67;;;9.77;;
13406;SDS011;6774;48.208;10.766;2023-04-06T07:46:03;10.77;;;9.77;;
13406;SDS011;6774;48.208;10.766;2023-04-06T07:48:30;10.83;;;10.00;;
13406;SDS011;6774;48.208;10.766;2023-04-06T07:51:03;9.57;;;8.33;;
13406;SDS011;6774;48.208;10.766;2023-04-06T07:53:36;9.47;;;8.67;;
13406;SDS011;6774;48.208;10.766;2023-04-06T07:56:04;9.97;;;8.47;;
13406;SDS011;6774;48.208;10.766;2023-04-06T07:58:32;10.87;;;8.13;;
13406;SDS011;6774;48.208;10.766;2023-04-06T08:00:59;11.87;;;9.53;;
13406;SDS011;6774;48.208;10.766;2023-04-06T08:03:28;9.93;;;8.53;;
13406;SDS011;6774;48.208;10.766;2023-04-06T08:05:56;10.67;;;9.70;;
13406;SDS011;6774;48.208;10.766;2023-04-06T08:08:25;9.53;;;8.23;;
13406;SDS011;6774;48.208;10.766;2023-04-06T08:10:52;8.93;;;8.13;;
13406;SDS011;6774;48.208;10.766;2023-04-06T08:13:20;9.63;;;8.70;;
13406;SDS011;6774;48.208;10.766;2023-04-06T08:15:48;8.60;;;7.80;;
13406;SDS011;6774;48.208;10.766;2023-04-06T08:18:16;6.90;;;6.27;;
13406;SDS011;6774;48.208;10.766;2023-04-06T08:20:43;6.20;;;5.73;;
13406;SDS011;6774;48.208;10.766;2023-04-06T08:23:11;19.40;;;8.53;;
13406;SDS011;6774;48.208;10.766;2023-04-06T08:25:41;14.40;;;10.00;;
13406;SDS011;6774;48.208;10.766;2023-04-06T08:28:09;8.57;;;7.80;;
13406;SDS011;6774;48.208;10.766;2023-04-06T08:30:39;6.93;;;6.20;;
13406;SDS011;6774;48.208;10.766;2023-04-06T08:33:07;6.83;;;5.93;;
13406;SDS011;6774;48.208;10.766;2023-04-06T08:35:34;7.60;;;6.97;;
13406;SDS011;6774;48.208;10.766;2023-04-06T08:38:02;6.73;;;6.13;;
13406;SDS011;6774;48.208;10.766;2023-04-06T08:40:30;7.07;;;5.43;;
13406;SDS011;6774;48.208;10.766;2023-04-06T08:43:05;5.60;;;5.13;;
13406;SDS011;6774;48.208;10.766;2023-04-06T08:45:36;6.70;;;6.10;;
13406;SDS011;6774;48.208;10.766;2023-04-06T08:48:04;6.43;;;5.97;;
13406;SDS011;6774;48.208;10.766;2023-04-06T08:50:33;16.67;;;6.97;;
13406;SDS011;6774;48.208;10.766;2023-04-06T08:53:01;8.47;;;6.17;;
13406;SDS011;6774;48.208;10.766;2023-04-06T08:55:29;7.20;;;5.23;;
13406;SDS011;6774;48.208;10.766;2023-04-06T08:57:57;5.57;;;5.17;;
13406;SDS011;6774;48.208;10.766;2023-04-06T09:00:28;6.10;;;5.70;;
13406;SDS011;6774;48.208;10.766;2023-04-06T09:02:56;6.80;;;5.53;;
13406;SDS011;6774;48.208;10.766;2023-04-06T09:05:25;5.40;;;4.90;;
13406;SDS011;6774;48.208;10.766;2023-04-06T09:07:53;6.07;;;5.50;;
13406;SDS011;6774;48.208;10.766;2023-04-06T09:10:21;6.30;;;5.80;;
13406;SDS011;6774;48.208;10.766;2023-04-06T09:13:01;6.43;;;5.93;;
13406;SDS011;6774;48.208;10.766;2023-04-06T09:15:31;5.60;;;5.20;;
13406;SDS011;6774;48.208;10.766;2023-04-06T09:17:59;7.70;;;4.80;;
13406;SDS011;6774;48.208;10.766;2023-04-06T09:20:27;4.60;;;4.20;;
13406;SDS011;6774;48.208;10.766;2023-04-06T09:22:55;5.70;;;5.30;;
13406;SDS011;6774;48.208;10.766;2023-04-06T09:25:23;5.70;;;5.30;;
13406;SDS011;6774;48.208;10.766;2023-04-06T09:27:58;6.23;;;5.73;;
13406;SDS011;6774;48.208;10.766;2023-04-06T09:30:27;6.03;;;5.63;;
13406;SDS011;6774;48.208;10.766;2023-04-06T09:32:56;5.67;;;5.00;;
13406;SDS011;6774;48.208;10.766;2023-04-06T09:35:25;20.37;;;8.17;;
13406;SDS011;6774;48.208;10.766;2023-04-06T09:37:54;5.90;;;5.27;;
13406;SDS011;6774;48.208;10.766;2023-04-06T09:40:22;7.60;;;6.23;;
13406;SDS011;6774;48.208;10.766;2023-04-06T09:42:51;6.43;;;5.87;;
13406;SDS011;6774;48.208;10.766;2023-04-06T09:45:20;6.07;;;5.67;;
13406;SDS011;6774;48.208;10.766;2023-04-06T09:47:48;5.40;;;5.00;;
13406;SDS011;6774;48.208;10.766;2023-04-06T09:50:19;7.47;;;6.77;;
13406;SDS011;6774;48.208;10.766;2023-04-06T09:52:47;7.50;;;6.80;;
13406;SDS011;6774;48.208;10.766;2023-04-06T09:55:17;7.37;;;6.43;;
13406;SDS011;6774;48.208;10.766;2023-04-06T09:57:52;6.97;;;6.47;;
13406;SDS011;6774;48.208;10.766;2023-04-06T10:00:25;5.63;;;4.97;;
13406;SDS011;6774;48.208;10.766;2023-04-06T10:02:56;18.27;;;8.33;;
13406;SDS011;6774;48.208;10.766;2023-04-06T10:05:32;6.70;;;6.20;;
13406;SDS011;6774;48.208;10.766;2023-04-06T10:08:05;7.40;;;4.80;;
13406;SDS011;6774;48.208;10.766;2023-04-06T10:10:34;7.33;;;6.83;;
13406;SDS011;6774;48.208;10.766;2023-04-06T10:13:02;6.20;;;5.70;;
13406;SDS011;6774;48.208;10.766;2023-04-06T10:15:30;6.00;;;5.57;;
13406;SDS011;6774;48.208;10.766;2023-04-06T10:17:59;6.77;;;6.27;;
13406;SDS011;6774;48.208;10.766;2023-04-06T10:20:29;5.13;;;4.63;;
13406;SDS011;6774;48.208;10.766;2023-04-06T10:23:05;5.43;;;5.03;;
13406;SDS011;6774;48.208;10.766;2023-04-06T10:25:35;5.60;;;5.20;;
13406;SDS011;6774;48.208;10.766;2023-04-06T10:28:04;5.50;;;4.13;;
13406;SDS011;6774;48.208;10.766;2023-04-06T10:30:33;7.93;;;6.90;;
13406;SDS011;6774;48.208;10.766;2023-04-06T10:33:06;5.53;;;5.10;;
13406;SDS011;6774;48.208;10.766;2023-04-06T10:35:42;4.03;;;3.80;;
13406;SDS011;6774;48.208;10.766;2023-04-06T10:38:09;3.17;;;2.97;;
13406;SDS011;6774;48.208;10.766;2023-04-06T10:40:39;3.37;;;3.07;;
13406;SDS011;6774;48.208;10.766;2023-04-06T10:43:09;5.20;;;3.60;;
13406;SDS011;6774;48.208;10.766;2023-04-06T10:45:38;3.43;;;3.17;;
13406;SDS011;6774;48.208;10.766;2023-04-06T10:48:13;5.13;;;4.73;;
13406;SDS011;6774;48.208;10.766;2023-04-06T10:50:44;3.27;;;3.07;;
13406;SDS011;6774;48.208;10.766;2023-04-06T10:53:20;4.80;;;4.33;;
13406;SDS011;6774;48.208;10.766;2023-04-06T10:55:49;4.93;;;4.57;;
13406;SDS011;6774;48.208;10.766;2023-04-06T10:58:17;3.10;;;2.90;;
13406;SDS011;6774;48.208;10.766;2023-04-06T11:00:46;3.07;;;2.87;;
13406;SDS011;6774;48.208;10.766;2023-04-06T11:03:17;4.10;;;2.80;;
13406;SDS011;6774;48.208;10.766;2023-04-06T11:05:46;5.97;;;5.47;;
13406;SDS011;6774;48.208;10.766;2023-04-06T11:08:22;3.57;;;3.37;;
13406;SDS011;6774;48.208;10.766;2023-04-06T11:10:50;5.20;;;4.20;;
13406;SDS011;6774;48.208;10.766;2023-04-06T11:13:18;3.40;;;3.20;;
13406;SDS011;6774;48.208;10.766;2023-04-06T11:15:46;11.20;;;4.80;;
13406;SDS011;6774;48.208;10.766;2023-04-06T11:18:17;3.47;;;3.17;;
13406;SDS011;6774;48.208;10.766;2023-04-06T11:20:48;4.40;;;4.00;;
13406;SDS011;6774;48.208;10.766;2023-04-06T11:23:22;5.33;;;3.47;;
13406;SDS011;6774;48.208;10.766;2023-04-06T11:25:50;3.63;;;3.43;;
13406;SDS011;6774;48.208;10.766;2023-04-06T11:28:19;3.47;;;3.27;;
13406;SDS011;6774;48.208;10.766;2023-04-06T11:30:47;3.77;;;3.57;;
13406;SDS011;6774;48.208;10.766;2023-04-06T11:33:20;4.53;;;3.93;;
13406;SDS011;6774;48.208;10.766;2023-04-06T11:35:50;5.00;;;3.83;;
13406;SDS011;6774;48.208;10.766;2023-04-06T11:38:17;3.73;;;3.50;;
13406;SDS011;6774;48.208;10.766;2023-04-06T11:40:46;8.83;;;5.40;;
13406;SDS011;6774;48.208;10.766;2023-04-06T11:43:14;4.70;;;4.40;;
13406;SDS011;6774;48.208;10.766;2023-04-06T11:45:41;18.70;;;4.97;;
13406;SDS011;6774;48.208;10.766;2023-04-06T11:48:17;3.23;;;2.93;;
13406;SDS011;6774;48.208;10.766;2023-04-06T11:50:47;3.27;;;3.07;;
13406;SDS011;6774;48.208;10.766;2023-04-06T11:53:16;3.97;;;3.40;;
13406;SDS011;6774;48.208;10.766;2023-04-06T11:55:44;5.07;;;3.63;;
13406;SDS011;6774;48.208;10.766;2023-04-06T11:58:13;5.10;;;4.60;;
13406;SDS011;6774;48.208;10.766;2023-04-06T12:00:41;3.80;;;3.60;;
13406;SDS011;6774;48.208;10.766;2023-04-06T12:03:13;4.43;;;3.97;;
13406;SDS011;6774;48.208;10.766;2023-04-06T12:05:41;2.83;;;2.60;;
13406;SDS011;6774;48.208;10.766;2023-04-06T12:08:08;3.83;;;3.60;;
13406;SDS011;6774;48.208;10.766;2023-04-06T12:10:37;35.43;;;5.90;;
13406;SDS011;6774;48.208;10.766;2023-04-06T12:13:05;5.40;;;3.50;;
13406;SDS011;6774;48.208;10.766;2023-04-06T12:15:33;3.73;;;3.50;;
13406;SDS011;6774;48.208;10.766;2023-04-06T12:18:00;2.87;;;2.67;;
13406;SDS011;6774;48.208;10.766;2023-04-06T12:20:28;3.93;;;3.63;;
13406;SDS011;6774;48.208;10.766;2023-04-06T12:22:56;3.90;;;3.70;;
13406;SDS011;6774;48.208;10.766;2023-04-06T12:25:24;4.43;;;3.53;;
13406;SDS011;6774;48.208;10.766;2023-04-06T12:27:53;3.60;;;3.30;;
13406;SDS011;6774;48.208;10.766;2023-04-06T12:30:21;3.47;;;3.17;;
13406;SDS011;6774;48.208;10.766;2023-04-06T12:32:49;4.17;;;3.97;;
13406;SDS011;6774;48.208;10.766;2023-04-06T12:35:17;4.30;;;3.90;;
13406;SDS011;6774;48.208;10.766;2023-04-06T12:37:45;3.40;;;3.30;;
13406;SDS011;6774;48.208;10.766;2023-04-06T12:40:13;3.70;;;3.50;;
13406;SDS011;6774;48.208;10.766;2023-04-06T12:42:41;4.20;;;3.80;;
13406;SDS011;6774;48.208;10.766;2023-04-06T12:45:10;4.30;;;4.00;;
13406;SDS011;6774;48.208;10.766;2023-04-06T12:47:38;3.93;;;3.73;;
13406;SDS011;6774;48.208;10.766;2023-04-06T12:50:06;4.67;;;4.27;;
13406;SDS011;6774;48.208;10.766;2023-04-06T12:52:34;73.80;;;11.23;;
13406;SDS011;6774;48.208;10.766;2023-04-06T12:55:02;6.10;;;4.20;;
13406;SDS011;6774;48.208;10.766;2023-04-06T12:57:31;4.10;;;3.83;;
13406;SDS011;6774;48.208;10.766;2023-04-06T12:59:59;3.83;;;3.53;;
13406;SDS011;6774;48.208;10.766;2023-04-06T13:02:28;4.43;;;4.13;;
13406;SDS011;6774;48.208;10.766;2023-04-06T13:04:57;6.07;;;4.23;;
13406;SDS011;6774;48.208;10.766;2023-04-06T13:07:25;4.77;;;4.53;;
13406;SDS011;6774;48.208;10.766;2023-04-06T13:09:53;3.73;;;3.53;;
13406;SDS011;6774;48.208;10.766;2023-04-06T13:12:21;6.03;;;4.43;;
13406;SDS011;6774;48.208;10.766;2023-04-06T13:14:49;4.40;;;3.80;;
13406;SDS011;6774;48.208;10.766;2023-04-06T13:17:18;3.60;;;3.17;;
13406;SDS011;6774;48.208;10.766;2023-04-06T13:19:48;4.30;;;4.03;;
13406;SDS011;6774;48.208;10.766;2023-04-06T13:22:16;4.60;;;4.30;;
13406;SDS011;6774;48.208;10.766;2023-04-06T13:24:44;3.83;;;3.57;;
13406;SDS011;6774;48.208;10.766;2023-04-06T13:27:12;2.43;;;2.33;;
13406;SDS011;6774;48.208;10.766;2023-04-06T13:29:40;2.90;;;1.90;;
13406;SDS011;6774;48.208;10.766;2023-04-06T13:32:07;4.27;;;3.97;;
13406;SDS011;6774;48.208;10.766;2023-04-06T13:34:36;4.97;;;4.57;;
13406;SDS011;6774;48.208;10.766;2023-04-06T13:37:05;4.40;;;4.00;;
13406;SDS011;6774;48.208;10.766;2023-04-06T13:39:33;13.03;;;5.67;;
13406;SDS011;6774;48.208;10.766;2023-04-06T13:42:01;3.97;;;3.67;;
13406;SDS011;6774;48.208;10.766;2023-04-06T13:44:29;3.10;;;2.90;;
13406;SDS011;6774;48.208;10.766;2023-04-06T13:46:57;4.37;;;2.97;;
13406;SDS011;6774;48.208;10.766;2023-04-06T13:49:24;2.67;;;2.57;;
13406;SDS011;6774;48.208;10.766;2023-04-06T13:51:52;13.80;;;4.17;;
13406;SDS011;6774;48.208;10.766;2023-04-06T13:54:21;3.40;;;3.30;;
13406;SDS011;6774;48.208;10.766;2023-04-06T13:56:49;2.90;;;2.70;;
13406;SDS011;6774;48.208;10.766;2023-04-06T13:59:18;153.73;;;19.90;;
13406;SDS011;6774;48.208;10.766;2023-04-06T14:01:46;3.50;;;3.30;;
13406;SDS011;6774;48.208;10.766;2023-04-06T14:04:14;2.80;;;2.53;;
13406;SDS011;6774;48.208;10.766;2023-04-06T14:06:44;3.37;;;3.17;;
13406;SDS011;6774;48.208;10.766;2023-04-06T14:09:12;3.30;;;3.10;;
13406;SDS011;6774;48.208;10.766;2023-04-06T14:11:41;31.80;;;7.97;;
13406;SDS011;6774;48.208;10.766;2023-04-06T14:14:08;3.33;;;3.13;;
13406;SDS011;6774;48.208;10.766;2023-04-06T14:16:36;5.97;;;4.70;;
13406;SDS011;6774;48.208;10.766;2023-04-06T14:19:04;3.23;;;3.03;;
13406;SDS011;6774;48.208;10.766;2023-04-06T14:21:32;3.27;;;2.47;;
13406;SDS011;6774;48.208;10.766;2023-04-06T14:23:59;31.80;;;8.87;;
13406;SDS011;6774;48.208;10.766;2023-04-06T14:26:27;3.30;;;3.00;;
13406;SDS011;6774;48.208;10.766;2023-04-06T14:28:57;3.23;;;2.90;;
13406;SDS011;6774;48.208;10.766;2023-04-06T14:31:26;2.97;;;2.77;;
13406;SDS011;6774;48.208;10.766;2023-04-06T14:33:54;2.90;;;2.77;;
13406;SDS011;6774;48.208;10.766;2023-04-06T14:36:22;3.37;;;3.10;;
13406;SDS011;6774;48.208;10.766;2023-04-06T14:38:53;2.57;;;2.47;;
13406;SDS011;6774;48.208;10.766;2023-04-06T14:41:21;8.03;;;3.30;;
13406;SDS011;6774;48.208;10.766;2023-04-06T14:43:50;3.27;;;3.07;;
13406;SDS011;6774;48.208;10.766;2023-04-06T14:46:20;3.77;;;2.90;;
13406;SDS011;6774;48.208;10.766;2023-04-06T14:48:48;3.93;;;3.43;;
13406;SDS011;6774;48.208;10.766;2023-04-06T14:51:15;2.67;;;2.57;;
13406;SDS011;6774;48.208;10.766;2023-04-06T14:53:44;2.87;;;2.67;;
13406;SDS011;6774;48.208;10.766;2023-04-06T14:56:12;3.07;;;2.87;;
13406;SDS011;6774;48.208;10.766;2023-04-06T14:58:40;3.73;;;3.53;;
13406;SDS011;6774;48.208;10.766;2023-04-06T15:01:07;9.10;;;3.30;;